Terminal Aerodrome Forecast
Issued by NWS Buffalo, NY

Home | Current Version | Previous Version | Text Only | Print | Product List | Glossary On
Versions: 1 2 3 4 5 6 7 8 9 10 11 12 13 14 15 16 17 18
000
FTUS41 KBUF 252128 AAA
TAFBUF
TAF AMD
KBUF 252128Z 2521/2618 24010KT P6SM VCSH BKN080
     FM252300 23012KT P6SM -SHRA BKN040
     FM260100 22010KT P6SM BKN050
     FM260600 23015KT P6SM BKN100=

USA.gov is the U.S. government's official web portal to all federal, state and local government web resources and services.